KVYS/VYS METAR and TAF weather

Enter ICAO airport designator
Station Type Date Time Source
KVYS METAR 2024/05/28 23:15 UTC NOAA

KVYS 282315Z AUTO 31012G18KT 10SM BKN100 18/12 A3002 RMK AO2 T01750123 TSNO


Station Type Date Time Source
KVYS Decoded METAR 2024/05/28 23:15 UTC NOAA

Peru, Illinois Valley Regional-Walter A Duncan Field Airport, IL, United States (KVYS) 41-21-07N 089-09-11W
May 28, 2024 - 07:15 PM EDT / 2024.05.28 2315 UTC
Wind: from the NW (310 degrees) at 14 MPH (12 KT) gusting to 21 MPH (18 KT):0
Visibility: 10 mile(s):0
Sky conditions: mostly cloudy
Temperature: 63.5 F (17.5 C)
Dew Point: 54.1 F (12.3 C)
Relative Humidity: 71%
Pressure (altimeter): 30.02 in. Hg (1016 hPa)
ob: KVYS 282315Z AUTO 31012G18KT 10SM BKN100 18/12 A3002 RMK AO2 T01750123 TSNO
cycle: 23

Station Type Date Time Source
KVYS TAF UTC NOAA

Error!

Example: see airport list